Time;durP1;ratioP1;P1;durP2;ratioP2;P2;SDS_P1;SDS_P2;PMS_P1;PMS_P2;Temp;Humidity;BMP_temperature;BMP_pressure;BME280_temperature;BME280_humidity;BME280_pressure;Samples;Min_cycle;Max_cycle;Signal;HPM_P1;HPM_P2
2023/12/28 00:00:09;;;;;;;;;;;;;;;4.98;85.40;100665.09;4211422;28;20027;-69
2023/12/28 00:02:13;;;;;;;;;;;;;;;4.98;85.48;100665.09;4211521;28;20082;-69
2023/12/28 00:04:14;;;;;;;;;;;;;;;5.01;85.17;100653.28;4211536;28;19982;-69
2023/12/28 00:06:17;;;;;;;;;;;;;;;5.00;85.37;100652.44;4211177;28;20026;-69
2023/12/28 00:08:19;;;;;;;;;;;;;;;4.99;85.56;100647.22;4211905;28;20043;-69
2023/12/28 00:10:20;;;;;;;;;;;;;;;4.99;85.36;100644.56;4211858;28;20030;-69
2023/12/28 00:12:23;;;;;;;;;;;;;;;5.01;85.40;100646.09;4210685;28;19962;-69
2023/12/28 00:14:25;;;;;;;;;;;;;;;5.01;85.26;100650.59;4211292;28;20446;-69
2023/12/28 00:16:30;;;;;;;;;;;;;;;5.02;85.34;100637.06;4210385;28;20019;-69
2023/12/28 00:18:32;;;;;;;;;;;;;;;5.02;85.28;100629.06;4211886;28;20018;-68
2023/12/28 00:20:33;;;;;;;;;;;;;;;5.02;85.24;100612.16;4211784;28;20031;-69
2023/12/28 00:22:37;;;;;;;;;;;;;;;5.01;85.20;100613.97;4210863;28;20027;-69
2023/12/28 00:24:39;;;;;;;;;;;;;;;5.01;85.25;100607.78;4209386;28;19939;-68
2023/12/28 00:26:40;;;;;;;;;;;;;;;5.03;85.07;100605.78;4211928;28;20034;-68
2023/12/28 00:28:42;;;;;;;;;;;;;;;5.00;85.30;100609.63;4219009;28;20027;-69
2023/12/28 00:30:44;;;;;;;;;;;;;;;5.01;85.29;100600.56;4209781;28;20377;-68
2023/12/28 00:32:48;;;;;;;;;;;;;;;5.02;84.99;100596.09;4211358;28;20018;-69
2023/12/28 00:34:50;;;;;;;;;;;;;;;5.02;85.20;100606.81;4211402;28;20006;-69
2023/12/28 00:36:52;;;;;;;;;;;;;;;5.01;84.98;100608.59;4210427;28;20028;-68
2023/12/28 00:38:54;;;;;;;;;;;;;;;5.01;85.39;100611.28;4205731;28;20023;-69
2023/12/28 00:40:56;;;;;;;;;;;;;;;5.02;84.90;100609.47;4208336;28;20019;-68
2023/12/28 00:42:58;;;;;;;;;;;;;;;5.03;85.09;100600.44;4184888;28;19928;-68
2023/12/28 00:44:59;;;;;;;;;;;;;;;5.04;84.92;100594.09;4211140;28;20031;-68
2023/12/28 00:47:01;;;;;;;;;;;;;;;5.04;85.11;100592.25;4211262;28;20042;-68
2023/12/28 00:49:04;;;;;;;;;;;;;;;5.03;85.21;100590.59;4210869;28;20376;-68
2023/12/28 00:51:06;;;;;;;;;;;;;;;5.05;85.10;100583.25;4202590;28;20031;-68
2023/12/28 00:53:08;;;;;;;;;;;;;;;5.05;84.92;100588.59;4211403;28;20464;-68
2023/12/28 00:55:11;;;;;;;;;;;;;;;5.07;84.91;100596.50;4209488;28;20040;-68
2023/12/28 00:57:13;;;;;;;;;;;;;;;5.08;84.85;100602.69;4202261;28;20014;-68
2023/12/28 00:59:15;;;;;;;;;;;;;;;5.08;84.87;100586.63;4211249;28;20047;-68
2023/12/28 01:01:17;;;;;;;;;;;;;;;5.07;84.84;100591.13;4210649;28;20022;-68
2023/12/28 01:03:19;;;;;;;;;;;;;;;5.08;84.77;100595.50;4210209;28;20055;-69
2023/12/28 01:05:22;;;;;;;;;;;;;;;5.09;84.37;100583.81;4211519;28;19924;-69
2023/12/28 01:07:24;;;;;;;;;;;;;;;5.10;84.32;100577.47;4210880;28;20012;-69
2023/12/28 01:09:26;;;;;;;;;;;;;;;5.10;84.22;100592.69;4211416;28;20022;-68
2023/12/28 01:11:28;;;;;;;;;;;;;;;5.11;84.53;100610.41;4192730;28;20015;-68
2023/12/28 01:13:31;;;;;;;;;;;;;;;5.13;84.20;100611.16;4210578;28;20015;-69
2023/12/28 01:15:33;;;;;;;;;;;;;;;5.12;84.15;100604.94;4201270;28;20019;-69
2023/12/28 01:17:35;;;;;;;;;;;;;;;5.14;84.00;100599.44;4218365;28;20027;-69
2023/12/28 01:19:36;;;;;;;;;;;;;;;5.13;83.94;100601.28;4210667;28;20024;-69
2023/12/28 01:21:40;;;;;;;;;;;;;;;5.14;84.13;100604.78;4210558;28;20022;-69
2023/12/28 01:23:42;;;;;;;;;;;;;;;5.11;83.89;100616.66;4210308;28;20027;-69
2023/12/28 01:25:43;;;;;;;;;;;;;;;5.12;84.09;100620.16;4211978;28;19928;-69
2023/12/28 01:27:45;;;;;;;;;;;;;;;5.11;84.04;100611.28;4218429;28;20026;-68
2023/12/28 01:29:47;;;;;;;;;;;;;;;5.10;83.81;100600.72;4210443;28;20595;-68
2023/12/28 01:31:48;;;;;;;;;;;;;;;5.10;83.72;100606.91;4211106;28;20018;-69
2023/12/28 01:33:50;;;;;;;;;;;;;;;5.10;83.69;100590.00;4210487;28;19965;-69
2023/12/28 01:35:52;;;;;;;;;;;;;;;5.10;83.57;100600.72;4216925;28;20015;-68
2023/12/28 01:37:55;;;;;;;;;;;;;;;5.10;83.80;100595.38;4217934;28;20372;-68
2023/12/28 01:39:57;;;;;;;;;;;;;;;5.09;83.79;100594.50;4210899;28;20031;-69
2023/12/28 01:41:59;;;;;;;;;;;;;;;5.09;83.94;100618.59;4210306;28;20402;-71
2023/12/28 01:44:01;;;;;;;;;;;;;;;5.08;83.83;100610.72;4201073;28;20060;-69
2023/12/28 01:46:04;;;;;;;;;;;;;;;5.06;84.03;100605.50;4210390;28;20028;-69
2023/12/28 01:48:06;;;;;;;;;;;;;;;5.06;84.28;100602.81;4213890;28;20441;-69
2023/12/28 01:50:09;;;;;;;;;;;;;;;5.05;84.18;100582.41;4212818;28;20010;-69
2023/12/28 01:52:11;;;;;;;;;;;;;;;5.05;83.85;100583.25;4214051;28;19928;-69
2023/12/28 01:54:14;;;;;;;;;;;;;;;5.05;83.90;100580.56;4214188;28;20023;-69
2023/12/28 01:56:16;;;;;;;;;;;;;;;5.04;84.13;100567.34;4205310;28;20138;-69
2023/12/28 01:58:18;;;;;;;;;;;;;;;5.04;84.15;100570.84;4228852;28;20026;-69
2023/12/28 02:00:20;;;;;;;;;;;;;;;5.03;84.01;100561.16;4214145;28;20035;-69
2023/12/28 02:02:22;;;;;;;;;;;;;;;5.04;83.95;100557.47;4220906;28;20019;-69
2023/12/28 02:04:28;;;;;;;;;;;;;;;5.04;83.65;100553.94;4212199;28;20023;-69
2023/12/28 02:06:30;;;;;;;;;;;;;;;5.03;83.48;100542.41;4220136;28;19927;-69
2023/12/28 02:08:31;;;;;;;;;;;;;;;5.07;83.43;100544.78;4213867;28;20012;-69
2023/12/28 02:10:34;;;;;;;;;;;;;;;5.08;82.94;100539.31;4211533;28;20328;-69
2023/12/28 02:12:36;;;;;;;;;;;;;;;5.13;82.95;100536.19;4218900;28;20412;-69
2023/12/28 02:14:38;;;;;;;;;;;;;;;5.16;82.98;100534.03;4213527;28;20019;-69
2023/12/28 02:16:40;;;;;;;;;;;;;;;5.19;83.17;100517.69;4212741;28;20018;-69
2023/12/28 02:18:43;;;;;;;;;;;;;;;5.23;83.20;100529.81;4221004;28;19924;-69
2023/12/28 02:20:45;;;;;;;;;;;;;;;5.29;83.38;100557.81;4220970;28;19999;-69
2023/12/28 02:22:47;;;;;;;;;;;;;;;5.35;83.31;100570.63;4210605;28;20026;-69
2023/12/28 02:25:14;;;;;;;;;;;;;;;5.40;83.27;100578.22;4220585;28;20023;-69
2023/12/28 02:27:17;;;;;;;;;;;;;;;5.46;83.22;100566.91;4194142;28;19928;-69
2023/12/28 02:29:19;;;;;;;;;;;;;;;5.49;83.03;100571.13;4212730;28;20015;-69
2023/12/28 02:31:22;;;;;;;;;;;;;;;5.53;82.98;100569.81;4212115;28;20003;-69
2023/12/28 02:33:25;;;;;;;;;;;;;;;5.56;83.02;100575.75;4212733;28;20039;-69
2023/12/28 02:35:29;;;;;;;;;;;;;;;5.61;82.50;100572.59;4219936;28;20035;-69
2023/12/28 02:37:31;;;;;;;;;;;;;;;5.64;82.52;100566.94;4210336;28;20399;-69
2023/12/28 02:39:33;;;;;;;;;;;;;;;5.68;82.16;100572.88;4212315;28;20014;-69
2023/12/28 02:41:35;;;;;;;;;;;;;;;5.70;82.10;100576.22;4203535;28;20024;-69
2023/12/28 02:43:38;;;;;;;;;;;;;;;5.73;82.15;100575.94;4211251;28;20015;-69
2023/12/28 02:45:40;;;;;;;;;;;;;;;5.74;82.07;100578.47;4212239;28;20015;-70
2023/12/28 02:47:44;;;;;;;;;;;;;;;5.76;81.84;100563.06;4212643;28;19924;-69
2023/12/28 02:49:46;;;;;;;;;;;;;;;5.79;81.67;100569.97;4211884;28;20010;-69
2023/12/28 02:51:48;;;;;;;;;;;;;;;5.82;81.33;100563.47;4210936;28;20417;-69
2023/12/28 02:53:50;;;;;;;;;;;;;;;5.85;81.35;100565.88;4213796;28;20027;-69
2023/12/28 02:55:52;;;;;;;;;;;;;;;5.86;81.11;100564.84;4213414;28;20011;-69
2023/12/28 02:57:54;;;;;;;;;;;;;;;5.90;80.89;100571.59;4212967;28;20372;-69
2023/12/28 03:00:01;;;;;;;;;;;;;;;5.92;80.52;100569.59;4212363;28;20378;-69
2023/12/28 03:02:04;;;;;;;;;;;;;;;5.95;80.50;100566.63;4212404;28;20014;-69
2023/12/28 03:04:06;;;;;;;;;;;;;;;5.96;80.61;100557.59;4213718;28;20038;-69
2023/12/28 03:06:07;;;;;;;;;;;;;;;5.99;80.52;100567.19;4212312;28;20022;-69
2023/12/28 03:08:09;;;;;;;;;;;;;;;6.01;79.83;100552.66;4211321;28;19935;-69
2023/12/28 03:10:11;;;;;;;;;;;;;;;6.02;79.92;100564.22;4219143;28;20011;-69
2023/12/28 03:12:16;;;;;;;;;;;;;;;6.03;79.97;100550.66;4220023;28;19924;-69
2023/12/28 03:14:17;;;;;;;;;;;;;;;6.04;79.73;100571.13;4213047;28;20027;-69
2023/12/28 03:16:20;;;;;;;;;;;;;;;6.06;79.61;100577.16;4208572;28;20454;-69
2023/12/28 03:18:22;;;;;;;;;;;;;;;6.07;79.24;100570.81;4212090;28;20106;-69
2023/12/28 03:20:24;;;;;;;;;;;;;;;6.09;79.17;100576.84;4212201;28;20051;-69
2023/12/28 03:22:26;;;;;;;;;;;;;;;6.10;78.75;100565.16;4204293;28;20501;-69
2023/12/28 03:24:28;;;;;;;;;;;;;;;6.12;79.13;100559.63;4203662;28;19966;-69
2023/12/28 03:26:30;;;;;;;;;;;;;;;6.12;78.75;100555.09;4212506;28;20352;-68
2023/12/28 03:28:32;;;;;;;;;;;;;;;6.14;78.70;100546.91;4203584;28;19924;-68
2023/12/28 03:30:35;;;;;;;;;;;;;;;6.15;78.43;100548.59;4186464;28;19967;-68
2023/12/28 03:32:39;;;;;;;;;;;;;;;6.16;78.39;100552.97;4212368;28;20031;-68
2023/12/28 03:34:40;;;;;;;;;;;;;;;6.19;78.46;100559.84;4212618;28;20022;-68
2023/12/28 03:36:42;;;;;;;;;;;;;;;6.19;78.23;100559.84;4212392;28;19978;-68
2023/12/28 03:38:44;;;;;;;;;;;;;;;6.20;77.79;100557.03;4218660;28;20022;-68
2023/12/28 03:40:47;;;;;;;;;;;;;;;6.23;77.76;100555.88;4219220;28;20015;-68
2023/12/28 03:42:49;;;;;;;;;;;;;;;6.24;77.46;100573.69;4202021;28;20102;-68
2023/12/28 03:44:50;;;;;;;;;;;;;;;6.24;77.83;100568.31;4203286;28;20022;-68
2023/12/28 03:46:52;;;;;;;;;;;;;;;6.25;77.60;100569.97;4210575;28;19948;-68
2023/12/28 03:48:56;;;;;;;;;;;;;;;6.25;77.70;100570.84;4213090;28;20348;-68
2023/12/28 03:50:58;;;;;;;;;;;;;;;6.27;77.54;100574.19;4220231;28;20031;-69
2023/12/28 03:53:00;;;;;;;;;;;;;;;6.28;77.54;100581.22;4219227;28;20374;-69
2023/12/28 03:55:02;;;;;;;;;;;;;;;6.31;77.02;100580.09;4209342;28;20031;-69
2023/12/28 03:57:04;;;;;;;;;;;;;;;6.32;76.86;100589.84;4213427;28;20035;-69
2023/12/28 03:59:05;;;;;;;;;;;;;;;6.34;77.01;100587.00;4219861;28;20019;-69
2023/12/28 04:01:09;;;;;;;;;;;;;;;6.34;77.19;100582.47;4212252;28;20014;-69
2023/12/28 04:03:11;;;;;;;;;;;;;;;6.36;77.09;100585.84;4211203;28;19983;-69
2023/12/28 04:05:14;;;;;;;;;;;;;;;6.37;77.19;100592.06;4211881;28;20015;-69
2023/12/28 04:07:17;;;;;;;;;;;;;;;6.38;77.21;100578.50;4211540;28;20125;-69
2023/12/28 04:09:19;;;;;;;;;;;;;;;6.40;77.04;100575.66;4210358;28;19962;-69
2023/12/28 04:11:22;;;;;;;;;;;;;;;6.41;76.88;100575.50;4211555;28;20015;-69
2023/12/28 04:13:23;;;;;;;;;;;;;;;6.41;76.83;100570.13;4211387;28;20027;-69
2023/12/28 04:15:25;;;;;;;;;;;;;;;6.43;77.03;100578.88;4211504;28;19928;-69
2023/12/28 04:17:27;;;;;;;;;;;;;;;6.43;76.89;100565.47;4217709;28;20027;-70
2023/12/28 04:19:29;;;;;;;;;;;;;;;6.45;76.71;100563.44;4218664;28;20015;-69
2023/12/28 04:21:32;;;;;;;;;;;;;;;6.47;76.59;100577.56;4210262;28;20030;-69
2023/12/28 04:23:34;;;;;;;;;;;;;;;6.48;76.53;100576.56;4212336;28;20026;-69
2023/12/28 04:25:35;;;;;;;;;;;;;;;6.51;76.77;100585.31;4203600;28;20023;-69
2023/12/28 04:27:37;;;;;;;;;;;;;;;6.51;76.29;100586.16;4212007;28;20001;-69
2023/12/28 04:29:39;;;;;;;;;;;;;;;6.52;76.49;100585.16;4211237;28;20023;-69
2023/12/28 04:31:42;;;;;;;;;;;;;;;6.53;76.15;100584.16;4211512;28;20023;-69
2023/12/28 04:33:44;;;;;;;;;;;;;;;6.54;76.42;100576.97;4212184;28;20415;-70
2023/12/28 04:35:45;;;;;;;;;;;;;;;6.55;76.05;100579.50;4219500;27;20018;-69
2023/12/28 04:37:49;;;;;;;;;;;;;;;6.57;76.16;100584.69;4218611;28;20026;-69
2023/12/28 04:39:51;;;;;;;;;;;;;;;6.56;nan;100586.53;4219122;28;20364;-69
2023/12/28 04:41:54;;;;;;;;;;;;;;;6.58;76.25;100581.00;4209057;28;20394;-68
2023/12/28 04:43:56;;;;;;;;;;;;;;;6.60;76.29;100597.78;4209965;28;20016;-69
2023/12/28 04:45:58;;;;;;;;;;;;;;;6.61;76.01;100588.75;4210101;28;20107;-69
2023/12/28 04:48:01;;;;;;;;;;;;;;;6.62;75.92;100583.22;4201416;28;20015;-69
2023/12/28 04:50:03;;;;;;;;;;;;;;;6.63;76.01;100582.22;4211132;28;19966;-69
2023/12/28 04:52:04;;;;;;;;;;;;;;;6.64;75.75;100588.44;4209725;28;20015;-69
2023/12/28 04:54:08;;;;;;;;;;;;;;;6.65;75.71;100595.50;4211918;28;20019;-69
2023/12/28 04:56:10;;;;;;;;;;;;;;;6.66;75.55;100605.22;4219499;28;20010;-69
2023/12/28 04:58:11;;;;;;;;;;;;;;;6.67;75.17;100598.84;4219351;28;20007;-69
2023/12/28 05:00:14;;;;;;;;;;;;;;;6.68;75.53;100606.75;4209810;28;20014;-69
2023/12/28 05:02:16;;;;;;;;;;;;;;;6.69;75.07;100591.47;4202532;28;20014;-69
2023/12/28 05:04:18;;;;;;;;;;;;;;;6.70;75.12;100611.97;4218330;28;20007;-70
2023/12/28 05:06:20;;;;;;;;;;;;;;;6.70;75.08;100595.88;4210742;28;20031;-69
2023/12/28 05:08:22;;;;;;;;;;;;;;;6.72;74.95;100607.28;4211712;28;20022;-69
2023/12/28 05:10:25;;;;;;;;;;;;;;;6.72;75.05;100601.91;4210737;28;19925;-69
2023/12/28 05:12:28;;;;;;;;;;;;;;;6.73;74.93;100600.94;4210831;28;20083;-69
2023/12/28 05:14:28;;;;;;;;;;;;;;;6.74;74.86;100613.34;4208860;28;20513;-69
2023/12/28 05:16:31;;;;;;;;;;;;;;;6.76;74.83;100616.72;4211626;28;19924;-69
2023/12/28 05:18:32;;;;;;;;;;;;;;;6.77;74.66;100623.78;4211367;28;20007;-69
2023/12/28 05:20:34;;;;;;;;;;;;;;;6.78;74.71;100613.88;4211050;28;20040;-69
2023/12/28 05:22:36;;;;;;;;;;;;;;;6.79;74.70;100620.94;4214493;28;20020;-69
2023/12/28 05:24:38;;;;;;;;;;;;;;;6.79;74.76;100619.09;4214341;28;20473;-69
2023/12/28 05:26:42;;;;;;;;;;;;;;;6.81;74.48;100625.13;4215428;28;20023;-69
2023/12/28 05:28:44;;;;;;;;;;;;;;;6.81;74.72;100630.50;4215098;28;20019;-69
2023/12/28 05:30:45;;;;;;;;;;;;;;;6.83;74.78;100638.41;4214014;28;20364;-69
2023/12/28 05:32:46;;;;;;;;;;;;;;;6.84;74.36;100634.75;4214284;28;20018;-69
2023/12/28 05:34:49;;;;;;;;;;;;;;;6.85;74.73;100626.53;4214994;28;19924;-69
2023/12/28 05:36:51;;;;;;;;;;;;;;;6.85;74.50;100626.53;4214324;28;20445;-69
2023/12/28 05:38:53;;;;;;;;;;;;;;;6.86;74.77;100616.63;4214181;28;20015;-69
2023/12/28 05:40:55;;;;;;;;;;;;;;;6.88;74.44;100635.25;4213570;28;20031;-69
2023/12/28 05:42:59;;;;;;;;;;;;;;;6.88;74.57;100625.38;4213528;28;20022;-69
2023/12/28 05:45:01;;;;;;;;;;;;;;;6.90;74.41;100636.81;4214452;28;20330;-69
2023/12/28 05:47:03;;;;;;;;;;;;;;;6.90;74.43;100636.81;4214421;28;20404;-69
2023/12/28 05:49:06;;;;;;;;;;;;;;;6.91;74.30;100637.63;4215250;28;20019;-69
2023/12/28 05:51:07;;;;;;;;;;;;;;;6.91;74.58;100657.28;4214043;28;19975;-69
2023/12/28 05:53:13;;;;;;;;;;;;;;;6.92;74.83;100653.59;4214275;28;20633;-69
2023/12/28 05:55:15;;;;;;;;;;;;;;;6.94;74.63;100656.13;4213575;28;20015;-69
2023/12/28 05:57:17;;;;;;;;;;;;;;;6.94;74.60;100670.38;4215174;28;20018;-69
2023/12/28 05:59:21;;;;;;;;;;;;;;;6.95;74.80;100665.88;4213856;28;20011;-69
2023/12/28 06:01:22;;;;;;;;;;;;;;;6.96;74.66;100670.22;4214594;28;20011;-69
2023/12/28 06:03:27;;;;;;;;;;;;;;;6.96;74.82;100671.09;4212400;28;19970;-69
2023/12/28 06:05:29;;;;;;;;;;;;;;;6.97;74.93;100670.06;4214662;28;20019;-69
2023/12/28 06:07:30;;;;;;;;;;;;;;;6.98;75.19;100669.06;4213489;28;20043;-69
2023/12/28 06:09:32;;;;;;;;;;;;;;;6.99;74.88;100677.97;4214315;28;20011;-69
2023/12/28 06:11:34;;;;;;;;;;;;;;;7.00;75.21;100672.44;4212728;28;20578;-69
2023/12/28 06:13:36;;;;;;;;;;;;;;;7.01;75.15;100674.13;4213326;28;20010;-69
2023/12/28 06:15:40;;;;;;;;;;;;;;;7.01;75.35;100684.88;4214387;28;20021;-69
2023/12/28 06:17:42;;;;;;;;;;;;;;;7.03;75.39;100692.78;4210736;28;20027;-69
2023/12/28 06:19:44;;;;;;;;;;;;;;;7.03;75.45;100700.84;4214024;28;20868;-69
2023/12/28 06:21:46;;;;;;;;;;;;;;;7.04;75.34;100697.16;4213799;28;20019;-69
2023/12/28 06:23:47;;;;;;;;;;;;;;;7.04;75.66;100692.63;4213516;28;20350;-68
2023/12/28 06:25:49;;;;;;;;;;;;;;;7.04;75.36;100673.00;4212785;28;20010;-69
2023/12/28 06:27:50;;;;;;;;;;;;;;;7.06;75.63;100686.28;4213895;28;19968;-68
2023/12/28 06:29:52;;;;;;;;;;;;;;;7.06;75.66;100681.72;4212267;28;20019;-69
2023/12/28 06:31:56;;;;;;;;;;;;;;;7.07;75.45;100691.47;4212497;28;20427;-69
2023/12/28 06:33:57;;;;;;;;;;;;;;;7.08;75.69;100693.16;4213044;28;20018;-69
2023/12/28 06:35:59;;;;;;;;;;;;;;;7.08;75.56;100685.09;4212929;28;19931;-69
2023/12/28 06:38:02;;;;;;;;;;;;;;;7.09;75.54;100685.97;4212459;28;20044;-69
2023/12/28 06:40:03;;;;;;;;;;;;;;;7.09;75.77;100688.66;4212720;28;20048;-69
2023/12/28 06:42:06;;;;;;;;;;;;;;;7.10;76.04;100682.25;4212850;28;20639;-69
2023/12/28 06:44:08;;;;;;;;;;;;;;;7.11;75.61;100674.03;4213357;28;20035;-69
2023/12/28 06:46:09;;;;;;;;;;;;;;;7.12;75.90;100680.28;4212529;28;20030;-69
2023/12/28 06:48:12;;;;;;;;;;;;;;;7.11;76.02;100684.78;4213623;28;20015;-69
2023/12/28 06:50:14;;;;;;;;;;;;;;;7.11;76.01;100681.25;4213469;28;20361;-69
2023/12/28 06:52:16;;;;;;;;;;;;;;;7.11;75.92;100690.16;4213376;28;20493;-69
2023/12/28 06:54:18;;;;;;;;;;;;;;;7.12;76.08;100677.59;4213417;28;20027;-69
2023/12/28 06:56:19;;;;;;;;;;;;;;;7.12;75.88;100682.97;4213476;28;20007;-69
2023/12/28 06:58:21;;;;;;;;;;;;;;;7.12;76.13;100683.78;4212933;28;20027;-69
2023/12/28 07:00:23;;;;;;;;;;;;;;;7.12;76.37;100702.59;4212380;28;20375;-69
2023/12/28 07:02:25;;;;;;;;;;;;;;;7.13;76.06;100695.38;4210685;28;20027;-69
2023/12/28 07:04:29;;;;;;;;;;;;;;;7.13;76.12;100698.91;4212731;28;20030;-68
2023/12/28 07:06:30;;;;;;;;;;;;;;;7.14;76.11;100697.91;4212918;28;20434;-69
2023/12/28 07:08:32;;;;;;;;;;;;;;;7.14;76.43;100689.84;4212794;28;19973;-68
2023/12/28 07:10:35;;;;;;;;;;;;;;;7.15;76.39;100691.53;4211737;28;20015;-68
2023/12/28 07:12:37;;;;;;;;;;;;;;;7.14;76.31;100697.91;4211325;28;19970;-68
2023/12/28 07:14:39;;;;;;;;;;;;;;;7.14;76.44;100697.91;4212743;28;20015;-69
2023/12/28 07:16:41;;;;;;;;;;;;;;;7.15;76.52;100696.09;4212710;28;20023;-68
2023/12/28 07:18:43;;;;;;;;;;;;;;;7.15;76.47;100712.19;4212865;28;19974;-69
2023/12/28 07:20:46;;;;;;;;;;;;;;;7.17;76.64;100702.13;4212920;28;20032;-68
2023/12/28 07:22:49;;;;;;;;;;;;;;;7.16;76.69;100709.34;4212570;28;20011;-69
2023/12/28 07:24:50;;;;;;;;;;;;;;;7.16;77.05;100714.72;4213646;28;20798;-68
2023/12/28 07:26:52;;;;;;;;;;;;;;;7.16;77.11;100722.78;4211352;28;20026;-69
2023/12/28 07:28:54;;;;;;;;;;;;;;;7.17;77.14;100734.38;4212293;28;20374;-69
2023/12/28 07:30:56;;;;;;;;;;;;;;;7.17;77.21;100720.94;4212339;28;20019;-69
2023/12/28 07:32:58;;;;;;;;;;;;;;;7.18;76.97;100722.63;4211839;28;19924;-69
2023/12/28 07:35:00;;;;;;;;;;;;;;;7.18;77.13;100731.53;4213463;28;20031;-69
2023/12/28 07:37:04;;;;;;;;;;;;;;;7.18;77.20;100738.75;4212840;28;20030;-69
2023/12/28 07:39:05;;;;;;;;;;;;;;;7.18;77.50;100734.22;4211929;28;20011;-69
2023/12/28 07:41:07;;;;;;;;;;;;;;;7.18;77.49;100726.16;4212094;28;20010;-69
2023/12/28 07:43:09;;;;;;;;;;;;;;;7.19;77.61;100732.34;4211650;28;20024;-69
2023/12/28 07:45:11;;;;;;;;;;;;;;;7.19;77.80;100735.91;4211528;28;20023;-70
2023/12/28 07:47:12;;;;;;;;;;;;;;;7.19;77.52;100743.97;4211991;28;20035;-69
2023/12/28 07:49:14;;;;;;;;;;;;;;;7.20;77.87;100752.84;4212156;28;20007;-69
2023/12/28 07:51:17;;;;;;;;;;;;;;;7.20;77.83;100742.94;4212454;28;20018;-70
2023/12/28 07:53:21;;;;;;;;;;;;;;;7.21;77.70;100750.03;4210241;28;19932;-69
2023/12/28 07:55:23;;;;;;;;;;;;;;;7.20;78.03;100742.94;4212027;28;20461;-69
2023/12/28 07:57:25;;;;;;;;;;;;;;;7.21;78.17;100760.75;4211629;28;20022;-70
2023/12/28 07:59:27;;;;;;;;;;;;;;;7.22;78.26;100764.28;4210091;28;20027;-70
2023/12/28 08:01:29;;;;;;;;;;;;;;;7.23;78.25;100765.97;4211071;28;20015;-69
2023/12/28 08:03:31;;;;;;;;;;;;;;;7.22;78.29;100766.97;4209697;28;20022;-69
2023/12/28 08:05:33;;;;;;;;;;;;;;;7.23;78.54;100752.56;4211640;28;20031;-68
2023/12/28 08:07:35;;;;;;;;;;;;;;;7.24;78.41;100764.13;4210913;28;20027;-68
2023/12/28 08:09:38;;;;;;;;;;;;;;;7.23;78.49;100765.97;4210196;28;20031;-68
2023/12/28 08:11:40;;;;;;;;;;;;;;;7.24;78.40;100764.13;4210175;28;20019;-70
2023/12/28 08:13:42;;;;;;;;;;;;;;;7.24;78.67;100770.38;4208717;28;19928;-69
2023/12/28 08:15:46;;;;;;;;;;;;;;;7.24;78.67;100777.56;4211848;28;20012;-69
2023/12/28 08:17:48;;;;;;;;;;;;;;;7.25;78.84;100790.00;4210850;28;20430;-68
2023/12/28 08:19:50;;;;;;;;;;;;;;;7.24;78.49;100783.81;4201767;28;20023;-69
2023/12/28 08:21:52;;;;;;;;;;;;;;;7.26;78.61;100794.38;4211826;28;20018;-68
2023/12/28 08:23:53;;;;;;;;;;;;;;;7.26;78.74;100794.38;4211870;28;20433;-68
2023/12/28 08:25:56;;;;;;;;;;;;;;;7.25;78.87;100790.84;4211382;28;20030;-68
2023/12/28 08:27:58;;;;;;;;;;;;;;;7.25;78.68;100800.75;4211883;28;20014;-68
2023/12/28 08:30:00;;;;;;;;;;;;;;;7.25;79.01;100803.44;4211954;28;20366;-68
2023/12/28 08:32:02;;;;;;;;;;;;;;;7.26;79.14;100813.16;4211106;28;20018;-68
2023/12/28 08:34:04;;;;;;;;;;;;;;;7.26;79.22;100803.28;4209647;28;19928;-68
2023/12/28 08:36:07;;;;;;;;;;;;;;;7.26;79.07;100816.72;4211808;28;20361;-68
2023/12/28 08:38:09;;;;;;;;;;;;;;;7.25;78.93;100801.59;4210993;28;20048;-68
2023/12/28 08:40:10;;;;;;;;;;;;;;;7.26;79.15;100795.22;4211233;28;20027;-68
2023/12/28 08:42:13;;;;;;;;;;;;;;;7.26;78.98;100800.59;4210170;28;20023;-68
2023/12/28 08:44:15;;;;;;;;;;;;;;;7.26;78.99;100802.41;4208576;28;20350;-69
2023/12/28 08:46:17;;;;;;;;;;;;;;;7.26;79.03;100803.28;4211123;28;20018;-68
2023/12/28 08:48:19;;;;;;;;;;;;;;;7.25;79.00;100803.44;4211251;28;20016;-67
2023/12/28 08:50:21;;;;;;;;;;;;;;;7.26;79.15;100805.97;4201998;28;19928;-68
2023/12/28 08:52:23;;;;;;;;;;;;;;;7.27;79.18;100806.81;4211364;28;20023;-67
2023/12/28 08:54:25;;;;;;;;;;;;;;;7.26;79.20;100808.66;4211727;28;19928;-68
2023/12/28 08:56:27;;;;;;;;;;;;;;;7.27;78.99;100801.44;4210362;28;20003;-68
2023/12/28 08:58:29;;;;;;;;;;;;;;;7.27;79.09;100801.44;4210870;28;20098;-67
2023/12/28 09:00:31;;;;;;;;;;;;;;;7.27;79.37;100802.28;4210804;28;20020;-67
2023/12/28 09:02:33;;;;;;;;;;;;;;;7.28;79.28;100805.81;4200803;28;20011;-67
2023/12/28 09:04:35;;;;;;;;;;;;;;;7.28;79.43;100811.19;4210206;28;20411;-67
2023/12/28 09:06:36;;;;;;;;;;;;;;;7.28;79.36;100809.34;4210614;28;20027;-67
2023/12/28 09:08:38;;;;;;;;;;;;;;;7.28;79.11;100825.47;4210458;28;20027;-67
2023/12/28 09:10:41;;;;;;;;;;;;;;;7.27;79.20;100813.00;4210701;28;20011;-67
2023/12/28 09:12:42;;;;;;;;;;;;;;;7.28;79.33;100819.25;4208982;28;20015;-67
2023/12/28 09:14:45;;;;;;;;;;;;;;;7.29;79.58;100818.22;4211623;28;19974;-67
2023/12/28 09:16:47;;;;;;;;;;;;;;;7.29;79.26;100834.34;4211924;28;20056;-67
2023/12/28 09:18:49;;;;;;;;;;;;;;;7.29;79.70;100828.97;4210867;28;20022;-68
2023/12/28 09:20:51;;;;;;;;;;;;;;;7.29;79.49;100831.66;4210319;28;20370;-67
2023/12/28 09:22:56;;;;;;;;;;;;;;;7.30;79.42;100834.19;4209505;28;20035;-67
2023/12/28 09:24:58;;;;;;;;;;;;;;;7.29;79.40;100834.34;4210409;28;20022;-67
2023/12/28 09:26:59;;;;;;;;;;;;;;;7.31;79.42;100829.69;4209812;28;20019;-67
2023/12/28 09:29:01;;;;;;;;;;;;;;;7.31;79.48;100825.16;4209958;28;20039;-67
2023/12/28 09:31:05;;;;;;;;;;;;;;;7.31;79.84;100814.41;4209143;28;20016;-67
2023/12/28 09:33:07;;;;;;;;;;;;;;;7.30;79.60;100818.06;4208689;28;20461;-67
2023/12/28 09:35:09;;;;;;;;;;;;;;;7.32;79.98;100817.94;4201407;28;19928;-67
2023/12/28 09:37:11;;;;;;;;;;;;;;;7.31;79.84;100816.25;4200885;28;20426;-67
2023/12/28 09:39:13;;;;;;;;;;;;;;;7.32;80.10;100810.72;4210279;28;20047;-67
2023/12/28 09:41:19;;;;;;;;;;;;;;;7.33;80.04;100815.09;4207839;28;20014;-67
2023/12/28 09:43:22;;;;;;;;;;;;;;;7.33;79.78;100823.16;4208931;28;20020;-66
2023/12/28 09:45:26;;;;;;;;;;;;;;;7.33;80.07;100808.88;4208020;28;20023;-66
2023/12/28 09:47:32;;;;;;;;;;;;;;;7.35;80.18;100807.75;4209304;28;20064;-67
2023/12/28 09:49:34;;;;;;;;;;;;;;;7.35;80.12;100814.94;4206557;28;20027;-67
2023/12/28 09:51:36;;;;;;;;;;;;;;;7.35;80.00;100810.41;4206785;28;20448;-66
2023/12/28 09:53:38;;;;;;;;;;;;;;;7.36;80.32;100806.72;4210009;28;20030;-66
2023/12/28 09:55:40;;;;;;;;;;;;;;;7.36;80.39;100813.94;4211359;28;20445;-66
2023/12/28 09:57:42;;;;;;;;;;;;;;;7.37;80.13;100807.59;4211684;28;20018;-67
2023/12/28 09:59:44;;;;;;;;;;;;;;;7.38;80.47;100810.13;4206724;28;20031;-66
2023/12/28 10:01:46;;;;;;;;;;;;;;;7.38;80.63;100818.19;4209061;28;20015;-66
2023/12/28 10:03:51;;;;;;;;;;;;;;;7.38;80.32;100815.50;4210077;28;20364;-66
2023/12/28 10:05:55;;;;;;;;;;;;;;;7.39;80.76;100814.47;4209395;28;20019;-66
2023/12/28 10:07:58;;;;;;;;;;;;;;;7.40;80.55;100816.16;4212169;28;20016;-67
2023/12/28 10:10:03;;;;;;;;;;;;;;;7.42;80.96;100823.25;4213529;28;20141;-67
2023/12/28 10:12:09;;;;;;;;;;;;;;;7.42;80.98;100817.88;4211931;28;20046;-68
2023/12/28 10:14:10;;;;;;;;;;;;;;;7.42;80.72;100816.00;4212889;27;20020;-67
2023/12/28 10:16:12;;;;;;;;;;;;;;;7.43;80.89;100809.66;4212307;28;19928;-67
2023/12/28 10:18:14;;;;;;;;;;;;;;;7.44;80.74;100802.44;4210290;28;20152;-67
2023/12/28 10:20:19;;;;;;;;;;;;;;;7.44;80.90;100808.63;4209408;28;20018;-67
2023/12/28 10:22:21;;;;;;;;;;;;;;;7.44;81.05;100811.31;4210795;28;20353;-67
2023/12/28 10:24:23;;;;;;;;;;;;;;;7.47;81.01;100826.31;4213238;28;20019;-67
2023/12/28 10:26:25;;;;;;;;;;;;;;;7.46;81.19;100812.03;4202905;28;20024;-66
2023/12/28 10:28:27;;;;;;;;;;;;;;;7.48;81.00;100810.03;4208124;28;20429;-66
2023/12/28 10:30:30;;;;;;;;;;;;;;;7.49;81.29;100810.84;4208164;28;20015;-67
2023/12/28 10:32:32;;;;;;;;;;;;;;;7.50;81.17;100793.75;4187136;28;19967;-66
2023/12/28 10:34:33;;;;;;;;;;;;;;;7.50;81.35;100797.25;4207276;28;20700;-67
2023/12/28 10:36:40;;;;;;;;;;;;;;;7.51;81.22;100796.28;4209467;28;19928;-66